createdAt,value
2023-06-04T00:00:10.508Z,12.63
2023-06-04T00:02:40.273Z,12.54
2023-06-04T00:05:09.966Z,12.44
2023-06-04T00:07:39.854Z,12.52
2023-06-04T00:10:09.291Z,12.56
2023-06-04T00:12:38.280Z,12.53
2023-06-04T00:15:08.394Z,12.50
2023-06-04T00:17:36.694Z,12.37
2023-06-04T00:20:05.946Z,12.12
2023-06-04T00:22:34.675Z,11.97
2023-06-04T00:25:05.174Z,11.84
2023-06-04T00:27:33.809Z,11.81
2023-06-04T00:30:02.657Z,11.89
2023-06-04T00:32:31.120Z,11.86
2023-06-04T00:35:00.048Z,11.89
2023-06-04T00:37:29.809Z,12.00
2023-06-04T00:39:58.322Z,12.13
2023-06-04T00:42:28.420Z,12.13
2023-06-04T00:44:58.752Z,12.06
2023-06-04T00:47:27.579Z,12.01
2023-06-04T00:50:00.258Z,11.87
2023-06-04T00:52:28.949Z,11.83
2023-06-04T00:54:57.887Z,11.96
2023-06-04T00:57:27.918Z,11.86
2023-06-04T00:59:57.149Z,11.74
2023-06-04T01:02:28.740Z,11.80
2023-06-04T01:05:11.158Z,11.84
2023-06-04T01:07:46.618Z,11.89
2023-06-04T01:10:15.599Z,11.77
2023-06-04T01:12:45.985Z,11.80
2023-06-04T01:15:16.714Z,11.79
2023-06-04T01:17:52.805Z,11.73
2023-06-04T01:20:36.652Z,11.65
2023-06-04T01:23:30.085Z,11.59
2023-06-04T01:25:59.468Z,11.53
2023-06-04T01:28:30.623Z,11.58
2023-06-04T01:31:00.801Z,11.67
2023-06-04T01:33:30.713Z,11.77
2023-06-04T01:36:01.121Z,11.67
2023-06-04T01:38:30.007Z,11.54
2023-06-04T01:41:02.429Z,11.40
2023-06-04T01:43:36.090Z,11.38
2023-06-04T01:46:04.845Z,11.32
2023-06-04T01:48:34.837Z,11.26
2023-06-04T01:51:03.566Z,11.19
2023-06-04T01:53:32.970Z,10.88
2023-06-04T01:56:02.229Z,10.74
2023-06-04T01:58:33.280Z,10.77
2023-06-04T02:01:04.537Z,10.80
2023-06-04T02:03:38.018Z,11.07
2023-06-04T02:06:08.574Z,11.23
2023-06-04T02:08:37.604Z,11.23
2023-06-04T02:11:06.474Z,11.12
2023-06-04T02:13:37.374Z,10.92
2023-06-04T02:16:06.620Z,10.85
2023-06-04T02:18:35.310Z,10.76
2023-06-04T02:21:05.906Z,10.66
2023-06-04T02:23:34.408Z,10.63
2023-06-04T02:26:03.084Z,10.53
2023-06-04T02:28:31.881Z,10.44
2023-06-04T02:31:01.675Z,10.51
2023-06-04T02:33:30.280Z,10.36
2023-06-04T02:35:59.251Z,10.23
2023-06-04T02:38:27.900Z,10.29
2023-06-04T02:40:56.285Z,10.33
2023-06-04T02:43:25.311Z,10.36
2023-06-04T02:45:53.988Z,10.25
2023-06-04T02:48:23.674Z,10.18
2023-06-04T02:50:52.391Z,10.03
2023-06-04T02:53:22.033Z,10.00
2023-06-04T02:55:51.906Z,10.05
2023-06-04T02:58:20.221Z,10.11
2023-06-04T03:00:48.855Z,10.09
2023-06-04T03:03:17.690Z,10.13
2023-06-04T03:05:47.820Z,10.21
2023-06-04T03:08:16.708Z,10.02
2023-06-04T03:10:45.792Z,9.99
2023-06-04T03:13:16.380Z,10.06
2023-06-04T03:15:45.908Z,10.30
2023-06-04T03:18:14.580Z,10.49
2023-06-04T03:20:43.194Z,10.56
2023-06-04T03:23:13.248Z,10.46
2023-06-04T03:25:41.868Z,10.40
2023-06-04T03:28:10.634Z,10.27
2023-06-04T03:30:39.366Z,10.20
2023-06-04T03:33:09.983Z,10.28
2023-06-04T03:35:38.810Z,10.50
2023-06-04T03:38:07.993Z,10.57
2023-06-04T03:40:38.660Z,10.51
2023-06-04T03:43:09.251Z,10.36
2023-06-04T03:45:38.650Z,10.38
2023-06-04T03:48:07.713Z,10.36
2023-06-04T03:50:37.976Z,10.36
2023-06-04T03:53:07.008Z,10.26
2023-06-04T03:55:38.082Z,10.33
2023-06-04T03:58:10.541Z,10.40
2023-06-04T04:00:41.285Z,10.51
2023-06-04T04:03:11.271Z,10.65
2023-06-04T04:05:40.292Z,10.76
2023-06-04T04:08:10.111Z,10.90
2023-06-04T04:10:40.280Z,10.96
2023-06-04T04:13:08.903Z,11.07
2023-06-04T04:15:40.551Z,11.02
2023-06-04T04:18:11.854Z,10.88
2023-06-04T04:20:41.121Z,10.90
2023-06-04T04:23:13.014Z,11.05
2023-06-04T04:25:46.192Z,11.07
2023-06-04T04:28:15.421Z,11.17
2023-06-04T04:30:44.511Z,11.18
2023-06-04T04:33:16.827Z,11.24
2023-06-04T04:35:49.182Z,11.30
2023-06-04T04:38:20.587Z,11.34
2023-06-04T04:40:56.739Z,11.43
2023-06-04T04:43:33.464Z,11.56
2023-06-04T04:46:09.752Z,11.66
2023-06-04T04:48:39.754Z,11.67
2023-06-04T04:51:08.778Z,11.82
2023-06-04T04:53:38.208Z,11.89
2023-06-04T04:56:08.524Z,12.02
2023-06-04T04:58:40.866Z,12.05
2023-06-04T05:01:10.110Z,12.21
2023-06-04T05:03:40.102Z,12.28
2023-06-04T05:06:09.943Z,12.39
2023-06-04T05:08:38.846Z,12.45
2023-06-04T05:11:09.316Z,12.59
2023-06-04T05:13:38.495Z,12.76
2023-06-04T05:16:08.768Z,12.89
2023-06-04T05:18:42.411Z,12.96
2023-06-04T05:21:13.966Z,13.09
2023-06-04T05:23:49.665Z,13.16
2023-06-04T05:26:24.263Z,13.23
2023-06-04T05:28:56.050Z,13.35
2023-06-04T05:31:27.699Z,13.51
2023-06-04T05:33:58.670Z,13.66
2023-06-04T05:36:29.295Z,13.80
2023-06-04T05:39:01.098Z,13.92
2023-06-04T05:41:51.603Z,14.13
2023-06-04T05:44:20.765Z,14.27
2023-06-04T05:46:50.230Z,14.43
2023-06-04T05:49:19.057Z,14.67
2023-06-04T05:51:47.904Z,14.88
2023-06-04T05:54:16.647Z,15.08
2023-06-04T05:56:46.315Z,15.14
2023-06-04T05:59:16.818Z,15.36
2023-06-04T06:01:45.532Z,16.00
2023-06-04T06:04:14.639Z,16.43
2023-06-04T06:06:45.123Z,16.71
2023-06-04T06:09:13.875Z,17.19
2023-06-04T06:11:42.953Z,17.45
2023-06-04T06:14:11.529Z,17.41
2023-06-04T06:16:41.387Z,17.69
2023-06-04T06:19:09.936Z,17.48
2023-06-04T06:21:38.704Z,18.31
2023-06-04T06:24:07.492Z,18.50
2023-06-04T06:26:37.207Z,18.63
2023-06-04T06:29:07.219Z,18.52
2023-06-04T06:31:36.934Z,18.78
2023-06-04T06:34:06.685Z,19.53
2023-06-04T06:36:35.377Z,19.81
2023-06-04T06:39:04.423Z,19.84
2023-06-04T06:41:33.510Z,19.85
2023-06-04T06:44:02.249Z,20.41
2023-06-04T06:46:30.589Z,20.22
2023-06-04T06:49:00.285Z,20.61
2023-06-04T06:51:29.982Z,20.91
2023-06-04T06:53:58.615Z,21.09
2023-06-04T06:56:27.352Z,21.16
2023-06-04T06:58:55.659Z,21.59
2023-06-04T07:01:24.429Z,21.75
2023-06-04T07:03:53.047Z,21.71
2023-06-04T07:06:22.032Z,21.59
2023-06-04T07:08:51.676Z,21.83
2023-06-04T07:11:20.361Z,22.07
2023-06-04T07:13:48.875Z,22.05
2023-06-04T07:16:17.842Z,22.03
2023-06-04T07:18:47.246Z,22.55
2023-06-04T07:21:15.506Z,22.51
2023-06-04T07:23:46.722Z,22.29
2023-06-04T07:26:17.451Z,22.99
2023-06-04T07:28:47.354Z,23.16
2023-06-04T07:31:18.657Z,22.97
2023-06-04T07:33:47.019Z,22.70
2023-06-04T07:36:16.397Z,22.79
2023-06-04T07:38:45.062Z,22.29
2023-06-04T07:41:15.070Z,22.68
2023-06-04T07:43:45.593Z,22.83
2023-06-04T07:46:14.119Z,22.90
2023-06-04T07:48:42.455Z,22.90
2023-06-04T07:51:12.480Z,23.17
2023-06-04T07:53:42.044Z,23.18
2023-06-04T07:56:10.486Z,22.75
2023-06-04T07:58:41.567Z,23.29
2023-06-04T08:01:11.131Z,23.57
2023-06-04T08:03:39.855Z,23.06
2023-06-04T08:06:08.871Z,23.64
2023-06-04T08:08:37.214Z,24.30
2023-06-04T08:11:06.001Z,24.90
2023-06-04T08:13:34.453Z,24.79
2023-06-04T08:16:04.133Z,25.01
2023-06-04T08:18:32.414Z,24.42
2023-06-04T08:21:00.822Z,24.34
2023-06-04T08:23:29.175Z,23.72
2023-06-04T08:25:57.595Z,23.53
2023-06-04T08:28:26.027Z,23.97
2023-06-04T08:30:54.333Z,23.76
2023-06-04T08:33:23.970Z,23.79
2023-06-04T08:35:52.601Z,23.39
2023-06-04T08:38:22.156Z,23.92
2023-06-04T08:40:58.717Z,24.72
2023-06-04T08:43:27.909Z,25.45
2023-06-04T08:46:03.043Z,24.44
2023-06-04T08:48:34.378Z,25.17
2023-06-04T08:51:04.856Z,25.88
2023-06-04T08:53:34.141Z,26.30
2023-06-04T08:56:02.756Z,26.69
2023-06-04T08:58:34.445Z,25.86
2023-06-04T09:01:04.353Z,26.54
2023-06-04T09:03:35.208Z,25.39
2023-06-04T09:06:04.542Z,25.48
2023-06-04T09:08:39.702Z,26.07
2023-06-04T09:11:13.100Z,26.32
2023-06-04T09:13:43.709Z,26.98
2023-06-04T09:16:12.390Z,27.29
2023-06-04T09:18:43.165Z,26.99
2023-06-04T09:21:11.726Z,26.60
2023-06-04T09:23:47.355Z,25.74
2023-06-04T09:26:16.573Z,26.14
2023-06-04T09:28:47.079Z,27.22
2023-06-04T09:31:17.689Z,27.45
2023-06-04T09:33:50.430Z,27.15
2023-06-04T09:36:19.596Z,27.73
2023-06-04T09:38:48.852Z,27.08
2023-06-04T09:41:24.791Z,26.92
2023-06-04T09:44:03.979Z,26.43
2023-06-04T09:46:33.144Z,27.03
2023-06-04T09:49:05.519Z,25.97
2023-06-04T09:51:34.613Z,26.97
2023-06-04T09:54:05.345Z,27.45
2023-06-04T09:56:42.507Z,26.57
2023-06-04T09:59:12.120Z,26.63
2023-06-04T10:01:44.185Z,25.94
2023-06-04T10:04:17.165Z,25.88
2023-06-04T10:06:46.001Z,26.02
2023-06-04T10:09:16.066Z,26.92
2023-06-04T10:11:55.650Z,27.75
2023-06-04T10:14:27.585Z,26.75
2023-06-04T10:17:00.526Z,27.81
2023-06-04T10:19:32.397Z,28.32
2023-06-04T10:22:00.698Z,29.03
2023-06-04T10:24:29.185Z,28.79
2023-06-04T10:27:00.500Z,29.51
2023-06-04T10:29:31.984Z,28.63
2023-06-04T10:32:00.338Z,28.51
2023-06-04T10:34:31.113Z,28.23
2023-06-04T10:36:59.805Z,28.28
2023-06-04T10:39:29.162Z,28.89
2023-06-04T10:42:02.590Z,29.14
2023-06-04T10:44:32.169Z,28.39
2023-06-04T10:47:01.031Z,29.03
2023-06-04T10:49:33.079Z,28.65
2023-06-04T10:52:12.981Z,29.27
2023-06-04T10:54:41.516Z,29.22
2023-06-04T10:57:14.063Z,28.77
2023-06-04T10:59:42.535Z,29.93
2023-06-04T11:02:11.342Z,29.36
2023-06-04T11:04:41.327Z,29.41
2023-06-04T11:07:10.904Z,28.56
2023-06-04T11:09:49.624Z,29.14
2023-06-04T11:12:18.773Z,29.95
2023-06-04T11:14:57.046Z,29.91
2023-06-04T11:17:25.845Z,28.91
2023-06-04T11:19:56.768Z,28.52
2023-06-04T11:22:26.082Z,27.95
2023-06-04T11:25:00.384Z,29.47
2023-06-04T11:27:36.810Z,29.57
2023-06-04T11:30:09.853Z,29.24
2023-06-04T11:32:38.186Z,29.76
2023-06-04T11:35:09.616Z,28.80
2023-06-04T11:37:38.707Z,27.72
2023-06-04T11:40:19.149Z,28.68
2023-06-04T11:42:49.066Z,29.87
2023-06-04T11:45:20.339Z,28.81
2023-06-04T11:47:50.530Z,29.27
2023-06-04T11:50:20.509Z,30.06
2023-06-04T11:52:50.490Z,29.79
2023-06-04T11:55:21.899Z,28.33
2023-06-04T11:57:52.025Z,28.47
2023-06-04T12:00:23.082Z,28.74
2023-06-04T12:02:54.756Z,28.25
2023-06-04T12:05:31.710Z,28.03
2023-06-04T12:08:11.293Z,27.66
2023-06-04T12:10:41.666Z,28.00
2023-06-04T12:13:10.573Z,28.77
2023-06-04T12:15:39.213Z,28.27
2023-06-04T12:18:08.085Z,28.27
2023-06-04T12:20:39.759Z,29.63
2023-06-04T12:23:09.564Z,28.45
2023-06-04T12:25:40.171Z,29.68
2023-06-04T12:28:18.965Z,28.45
2023-06-04T12:30:50.667Z,29.69
2023-06-04T12:33:19.202Z,29.52
2023-06-04T12:35:48.912Z,28.21
2023-06-04T12:38:17.253Z,27.59
2023-06-04T12:40:45.969Z,28.28
2023-06-04T12:43:14.248Z,28.81
2023-06-04T12:45:42.941Z,28.35
2023-06-04T12:48:11.502Z,27.60
2023-06-04T12:50:40.244Z,27.98
2023-06-04T12:53:09.895Z,26.68
2023-06-04T12:55:38.549Z,28.13
2023-06-04T12:58:06.857Z,28.00
2023-06-04T13:00:35.226Z,29.17
2023-06-04T13:03:04.151Z,28.56
2023-06-04T13:05:32.814Z,29.32
2023-06-04T13:08:02.324Z,29.97
2023-06-04T13:10:32.327Z,29.18
2023-06-04T13:13:00.659Z,29.02
2023-06-04T13:15:30.513Z,28.33
2023-06-04T13:17:58.884Z,28.46
2023-06-04T13:20:27.534Z,27.97
2023-06-04T13:22:56.032Z,28.73
2023-06-04T13:25:25.066Z,26.98
2023-06-04T13:27:55.063Z,26.44
2023-06-04T13:30:24.539Z,27.21
2023-06-04T13:32:53.402Z,27.39
2023-06-04T13:35:22.765Z,26.62
2023-06-04T13:37:52.332Z,25.64
2023-06-04T13:40:20.644Z,26.88
2023-06-04T13:42:49.308Z,25.71
2023-06-04T13:45:21.273Z,26.32
2023-06-04T13:47:50.256Z,26.91
2023-06-04T13:50:18.905Z,26.16
2023-06-04T13:52:47.266Z,24.98
2023-06-04T13:55:15.650Z,23.86
2023-06-04T13:57:44.454Z,24.58
2023-06-04T14:00:16.123Z,26.25
2023-06-04T14:02:46.086Z,27.36
2023-06-04T14:05:14.754Z,25.98
2023-06-04T14:07:44.455Z,27.13
2023-06-04T14:10:13.468Z,27.24
2023-06-04T14:12:42.544Z,27.31
2023-06-04T14:15:12.963Z,27.75
2023-06-04T14:17:41.601Z,28.14
2023-06-04T14:20:12.060Z,28.20
2023-06-04T14:22:41.000Z,28.24
2023-06-04T14:25:10.956Z,26.91
2023-06-04T14:27:39.634Z,26.53
2023-06-04T14:30:10.442Z,26.87
2023-06-04T14:32:39.670Z,26.29
2023-06-04T14:35:10.802Z,27.18
2023-06-04T14:37:39.124Z,27.69
2023-06-04T14:40:09.222Z,26.89
2023-06-04T14:42:37.634Z,26.85
2023-06-04T14:45:07.244Z,25.06
2023-06-04T14:47:35.675Z,24.84
2023-06-04T14:50:04.005Z,24.80
2023-06-04T14:52:33.680Z,25.26
2023-06-04T14:55:01.946Z,26.28
2023-06-04T14:57:30.217Z,26.10
2023-06-04T14:59:58.515Z,26.34
2023-06-04T15:02:26.851Z,26.30
2023-06-04T15:04:55.158Z,27.35
2023-06-04T15:07:24.998Z,27.40
2023-06-04T15:09:54.644Z,26.91
2023-06-04T15:12:23.249Z,26.11
2023-06-04T15:14:51.978Z,25.90
2023-06-04T15:17:20.408Z,25.64
2023-06-04T15:19:49.157Z,26.03
2023-06-04T15:22:17.861Z,25.84
2023-06-04T15:24:46.484Z,26.26
2023-06-04T15:27:16.332Z,25.66
2023-06-04T15:29:46.499Z,25.11
2023-06-04T15:32:16.755Z,25.05
2023-06-04T15:34:45.665Z,23.92
2023-06-04T15:37:13.984Z,25.00
2023-06-04T15:39:42.635Z,25.70
2023-06-04T15:42:13.028Z,26.77
2023-06-04T15:44:43.230Z,26.91
2023-06-04T15:47:12.567Z,26.21
2023-06-04T15:49:41.138Z,25.07
2023-06-04T15:52:09.812Z,25.13
2023-06-04T15:57:12.933Z,25.26
2023-06-04T15:59:44.165Z,25.35
2023-06-04T16:02:12.801Z,25.45
2023-06-04T16:04:41.158Z,25.36
2023-06-04T16:07:09.459Z,24.98
2023-06-04T16:09:38.312Z,25.52
2023-06-04T16:12:07.387Z,25.53
2023-06-04T16:14:36.283Z,25.34
2023-06-04T16:17:06.831Z,24.78
2023-06-04T16:19:35.186Z,23.70
2023-06-04T16:22:03.879Z,24.20
2023-06-04T16:24:32.706Z,24.01
2023-06-04T16:27:01.390Z,24.40
2023-06-04T16:29:29.619Z,24.51
2023-06-04T16:31:58.284Z,24.95
2023-06-04T16:34:28.019Z,25.07
2023-06-04T16:36:56.317Z,25.25
2023-06-04T16:39:24.916Z,25.33
2023-06-04T16:41:53.919Z,25.32
2023-06-04T16:44:22.254Z,25.15
2023-06-04T16:46:50.642Z,24.87
2023-06-04T16:49:19.026Z,24.93
2023-06-04T16:51:49.466Z,24.96
2023-06-04T16:54:19.093Z,24.89
2023-06-04T16:56:47.467Z,24.76
2023-06-04T16:59:15.872Z,24.85
2023-06-04T17:01:44.661Z,24.77
2023-06-04T17:04:12.945Z,24.43
2023-06-04T17:06:41.562Z,24.12
2023-06-04T17:09:11.808Z,24.09
2023-06-04T17:11:40.297Z,24.18
2023-06-04T17:14:09.144Z,24.31
2023-06-04T17:16:38.220Z,24.23
2023-06-04T17:19:07.346Z,23.92
2023-06-04T17:21:37.061Z,23.56
2023-06-04T17:24:05.994Z,23.38
2023-06-04T17:26:36.123Z,23.20
2023-06-04T17:29:05.535Z,23.26
2023-06-04T17:31:34.256Z,23.06
2023-06-04T17:34:03.043Z,22.85
2023-06-04T17:36:31.515Z,22.98
2023-06-04T17:39:00.179Z,23.06
2023-06-04T17:41:30.151Z,23.13
2023-06-04T17:44:00.129Z,23.17
2023-06-04T17:46:28.827Z,23.12
2023-06-04T17:48:58.638Z,22.92
2023-06-04T17:51:27.266Z,22.80
2023-06-04T17:53:55.883Z,22.69
2023-06-04T17:56:24.442Z,22.58
2023-06-04T17:58:53.044Z,22.43
2023-06-04T18:01:22.714Z,22.36
2023-06-04T18:03:51.804Z,22.15
2023-06-04T18:06:20.499Z,22.03
2023-06-04T18:08:49.217Z,22.03
2023-06-04T18:11:17.878Z,21.93
2023-06-04T18:13:46.638Z,21.78
2023-06-04T18:16:16.300Z,21.65
2023-06-04T18:18:46.497Z,21.59
2023-06-04T18:21:14.833Z,21.59
2023-06-04T18:23:49.833Z,21.35
2023-06-04T18:26:18.126Z,21.23
2023-06-04T18:28:47.066Z,21.09
2023-06-04T18:31:15.411Z,20.93
2023-06-04T18:33:54.045Z,20.88
2023-06-04T18:36:23.065Z,20.78
2023-06-04T18:38:51.738Z,20.60
2023-06-04T18:41:20.322Z,20.50
2023-06-04T18:43:49.050Z,20.39
2023-06-04T18:46:18.019Z,20.31
2023-06-04T18:48:48.034Z,20.06
2023-06-04T18:51:17.756Z,19.96
2023-06-04T18:53:46.422Z,19.70
2023-06-04T18:56:15.029Z,19.29
2023-06-04T18:58:46.863Z,19.09
2023-06-04T19:01:16.507Z,19.00
2023-06-04T19:03:45.196Z,18.76
2023-06-04T19:06:13.953Z,18.57
2023-06-04T19:08:43.697Z,18.33
2023-06-04T19:11:12.317Z,18.16
2023-06-04T19:13:41.015Z,17.93
2023-06-04T19:16:11.986Z,17.83
2023-06-04T19:18:40.472Z,17.76
2023-06-04T19:21:09.148Z,17.62
2023-06-04T19:23:38.209Z,17.45
2023-06-04T19:26:09.058Z,17.26
2023-06-04T19:28:38.845Z,17.20
2023-06-04T19:31:07.543Z,17.13
2023-06-04T19:33:36.418Z,17.11
2023-06-04T19:36:05.854Z,16.98
2023-06-04T19:38:34.878Z,16.96
2023-06-04T19:41:03.645Z,16.88
2023-06-04T19:43:33.299Z,16.98
2023-06-04T19:46:03.038Z,16.86
2023-06-04T19:48:31.834Z,16.64
2023-06-04T19:51:00.495Z,16.35
2023-06-04T19:53:29.595Z,16.18
2023-06-04T19:55:58.224Z,16.24
2023-06-04T19:58:27.785Z,16.30
2023-06-04T20:00:57.798Z,16.14
2023-06-04T20:03:26.698Z,16.15
2023-06-04T20:05:55.777Z,16.07
2023-06-04T20:08:26.046Z,15.97
2023-06-04T20:10:54.876Z,15.86
2023-06-04T20:13:23.594Z,15.76
2023-06-04T20:15:52.344Z,15.61
2023-06-04T20:18:23.511Z,15.44
2023-06-04T20:20:53.311Z,15.44
2023-06-04T20:23:22.083Z,15.34
2023-06-04T20:25:51.642Z,15.45
2023-06-04T20:28:20.704Z,15.53
2023-06-04T20:30:49.966Z,15.26
2023-06-04T20:33:18.353Z,15.25
2023-06-04T20:35:48.067Z,15.36
2023-06-04T20:38:16.881Z,15.61
2023-06-04T20:40:45.867Z,15.64
2023-06-04T20:43:17.361Z,15.77
2023-06-04T20:45:45.978Z,16.23
2023-06-04T20:48:14.702Z,16.52
2023-06-04T20:50:43.348Z,16.65
2023-06-04T20:53:13.216Z,16.78
2023-06-04T20:55:41.970Z,16.82
2023-06-04T20:58:10.940Z,16.85
2023-06-04T21:00:39.605Z,16.83
2023-06-04T21:03:08.062Z,16.79
2023-06-04T21:05:36.515Z,16.82
2023-06-04T21:08:05.540Z,16.64
2023-06-04T21:10:35.769Z,16.58
2023-06-04T21:13:04.274Z,16.49
2023-06-04T21:15:33.150Z,16.41
2023-06-04T21:18:01.869Z,16.53
2023-06-04T21:20:30.605Z,16.37
2023-06-04T21:22:58.953Z,16.37
2023-06-04T21:25:27.603Z,16.41
2023-06-04T21:27:57.349Z,16.40
2023-06-04T21:30:26.406Z,16.39
2023-06-04T21:32:55.339Z,16.39
2023-06-04T21:35:23.973Z,16.42
2023-06-04T21:37:52.655Z,16.49
2023-06-04T21:40:21.249Z,16.41
2023-06-04T21:42:49.970Z,16.23
2023-06-04T21:45:20.528Z,16.27
2023-06-04T21:47:49.475Z,16.29
2023-06-04T21:50:18.166Z,16.19
2023-06-04T21:52:47.637Z,16.29
2023-06-04T21:55:16.790Z,16.35
2023-06-04T21:57:45.453Z,16.34
2023-06-04T22:00:16.791Z,16.28
2023-06-04T22:02:47.297Z,16.28
2023-06-04T22:05:16.085Z,16.19
2023-06-04T22:07:44.354Z,16.20
2023-06-04T22:10:13.244Z,16.25
2023-06-04T22:12:42.641Z,16.16
2023-06-04T22:15:11.752Z,16.13
2023-06-04T22:17:40.384Z,16.03
2023-06-04T22:20:11.663Z,16.09
2023-06-04T22:22:39.997Z,15.91
2023-06-04T22:25:09.354Z,15.86
2023-06-04T22:27:38.001Z,15.81
2023-06-04T22:30:08.540Z,15.84
2023-06-04T22:32:37.333Z,15.95
2023-06-04T22:35:06.582Z,16.08
2023-06-04T22:37:36.486Z,16.03
2023-06-04T22:40:06.168Z,16.04
2023-06-04T22:42:34.590Z,15.92
2023-06-04T22:45:03.365Z,15.83
2023-06-04T22:47:32.757Z,15.85
2023-06-04T22:50:01.225Z,15.81
2023-06-04T22:52:30.022Z,15.78
2023-06-04T22:54:59.802Z,15.60
2023-06-04T22:57:28.572Z,15.52
2023-06-04T22:59:57.180Z,15.56
2023-06-04T23:02:25.486Z,15.53
2023-06-04T23:04:54.148Z,15.50
2023-06-04T23:07:22.757Z,15.47
2023-06-04T23:09:52.515Z,15.42
2023-06-04T23:12:22.563Z,15.44
2023-06-04T23:14:51.258Z,15.36
2023-06-04T23:17:20.769Z,15.35
2023-06-04T23:19:49.508Z,15.36
2023-06-04T23:22:18.149Z,15.30
2023-06-04T23:24:46.801Z,15.27
2023-06-04T23:27:15.549Z,15.30
2023-06-04T23:29:46.278Z,15.24
2023-06-04T23:32:14.792Z,15.23
2023-06-04T23:34:43.565Z,15.27
2023-06-04T23:37:12.655Z,15.27
2023-06-04T23:39:41.404Z,15.15
2023-06-04T23:42:10.062Z,15.14
2023-06-04T23:44:38.904Z,15.14
2023-06-04T23:47:09.328Z,15.03
2023-06-04T23:49:37.942Z,14.93
2023-06-04T23:52:07.386Z,14.88
2023-06-04T23:54:35.773Z,14.78
2023-06-04T23:57:04.103Z,14.71
2023-06-04T23:59:32.782Z,14.69
